Time;durP1;ratioP1;P1;durP2;ratioP2;P2;SDS_P1;SDS_P2;PMS_P1;PMS_P2;Temp;Humidity;BMP_temperature;BMP_pressure;BME280_temperature;BME280_humidity;BME280_pressure;Samples;Min_cycle;Max_cycle;Signal;HPM_P1;HPM_P2
2022/01/21 00:01:42;;;;;;;;;9.25;8.50;;;;;7.21;59.39;103113.50;5042926;28;45381;-49
2022/01/21 00:04:09;;;;;;;;;10.00;6.25;;;;;7.21;59.27;103118.72;5043062;28;45348;-49
2022/01/21 00:06:34;;;;;;;;;11.00;8.00;;;;;7.20;59.42;103107.41;5042871;28;45257;-51
2022/01/21 00:09:00;;;;;;;;;7.50;7.00;;;;;7.20;59.17;103109.13;5042463;28;45374;-51
2022/01/21 00:11:29;;;;;;;;;7.00;7.00;;;;;7.15;59.25;103103.72;5038916;28;45490;-50
2022/01/21 00:13:55;;;;;;;;;8.00;7.00;;;;;7.16;59.20;103106.38;5047299;28;45454;-49
2022/01/21 00:16:23;;;;;;;;;7.25;5.50;;;;;7.16;59.05;103111.63;5042775;28;45167;-50
2022/01/21 00:19:00;;;;;;;;;9.25;8.75;;;;;7.13;59.29;103100.16;5024722;28;46244;-50
2022/01/21 00:32:24;;;;;;;;;7.50;7.50;;;;;7.07;59.48;103099.91;5049977;28;45322;-51
2022/01/21 00:34:49;;;;;;;;;4.75;4.75;;;;;7.06;59.34;103092.94;5044630;28;45358;-52
2022/01/21 00:37:14;;;;;;;;;7.75;6.75;;;;;7.07;59.25;103098.22;5011631;28;45481;-48
2022/01/21 00:39:40;;;;;;;;;10.25;9.00;;;;;7.05;59.41;103086.78;5062424;28;45252;-50
2022/01/21 00:43:13;;;;;;;;;10.00;7.00;;;;;7.06;59.34;103096.41;5062973;28;45596;-49
2022/01/21 00:45:01;;;;;;;;;9.00;7.50;;;;;7.04;59.29;103090.22;5049120;28;45329;-51
2022/01/21 00:47:28;;;;;;;;;9.75;7.75;;;;;7.05;59.29;103093.75;5044153;28;45404;-48
2022/01/21 00:49:54;;;;;;;;;8.50;5.50;;;;;7.01;59.25;103095.34;5057531;28;45639;-53
2022/01/21 00:52:19;;;;;;;;;9.75;6.75;;;;;6.99;59.19;103095.31;5024328;28;45367;-50
2022/01/21 00:54:45;;;;;;;;;11.75;8.25;;;;;6.99;59.32;103097.00;5042291;28;45288;-53
2022/01/21 00:57:10;;;;;;;;;10.50;8.00;;;;;6.98;59.18;103085.66;5042339;28;45530;-53
2022/01/21 00:59:36;;;;;;;;;11.00;10.00;;;;;6.95;59.15;103090.75;5042028;28;46101;-53
2022/01/21 01:02:03;;;;;;;;;8.50;7.75;;;;;6.92;59.23;103097.63;5041988;28;45298;-53
2022/01/21 01:04:28;;;;;;;;;10.75;8.50;;;;;6.91;59.44;103098.47;5042052;28;46224;-52
2022/01/21 01:06:54;;;;;;;;;10.75;9.00;;;;;6.89;59.26;103095.75;5041980;28;45467;-50
2022/01/21 01:09:19;;;;;;;;;10.50;10.25;;;;;6.87;59.20;103097.44;5053857;28;46129;-48
2022/01/21 01:20:00;;;;;;;;;9.25;7.50;;;;;6.82;59.33;103096.38;5026779;28;45338;-50
2022/01/21 01:22:40;;;;;;;;;8.50;8.50;;;;;6.81;59.54;103097.19;5041710;28;45344;-51
2022/01/21 01:27:50;;;;;;;;;10.00;8.25;;;;;6.81;59.58;103087.63;5041735;28;45308;-51
2022/01/21 01:30:19;;;;;;;;;12.75;10.50;;;;;6.82;59.57;103086.78;5041433;28;45957;-52
2022/01/21 01:32:46;;;;;;;;;9.75;8.00;;;;;6.75;59.35;103074.31;5041672;28;45437;-51
2022/01/21 01:35:14;;;;;;;;;8.75;7.75;;;;;6.78;59.48;103086.59;5041624;28;45336;-50
2022/01/21 01:40:31;;;;;;;;;5.25;5.00;;;;;6.74;59.64;103090.84;5041135;28;45916;-48
2022/01/21 01:50:48;;;;;;;;;7.25;5.00;;;;;6.65;59.67;103094.00;5048810;28;46007;-51
2022/01/21 01:53:15;;;;;;;;;12.00;8.50;;;;;6.65;59.40;103107.06;5041213;28;45249;-50
2022/01/21 01:55:41;;;;;;;;;12.50;8.00;;;;;6.64;59.50;103101.75;5023575;28;45317;-51
2022/01/21 01:58:06;;;;;;;;;12.25;8.00;;;;;6.64;59.44;103102.66;5041132;28;45409;-52
2022/01/21 02:00:32;;;;;;;;;12.75;9.25;;;;;6.63;59.41;103110.44;5041056;28;45828;-49
2022/01/21 02:03:07;;;;;;;;;4.75;4.75;;;;;6.64;59.63;103112.19;5040881;28;45339;-51
2022/01/21 02:05:33;;;;;;;;;9.25;8.00;;;;;6.64;59.35;103106.97;5041272;28;45502;-50
2022/01/21 02:07:58;;;;;;;;;7.75;7.25;;;;;6.62;59.57;103112.16;5040825;28;45449;-50
2022/01/21 02:10:24;;;;;;;;;14.00;9.25;;;;;6.62;59.45;103112.16;5040836;28;46167;-51
2022/01/21 02:12:50;;;;;;;;;10.50;7.00;;;;;6.61;59.67;103105.13;5023168;28;45341;-49
2022/01/21 02:15:16;;;;;;;;;12.25;8.75;;;;;6.61;59.52;103127.75;5041068;28;45453;-51
2022/01/21 02:22:51;;;;;;;;;8.00;5.25;;;;;6.57;59.69;103121.53;5041123;28;45326;-50
2022/01/21 02:25:19;;;;;;;;;12.00;8.00;;;;;6.57;59.47;103118.03;5040671;28;45335;-52
2022/01/21 02:27:47;;;;;;;;;9.25;8.25;;;;;6.54;59.45;103108.34;5022917;28;45413;-51
2022/01/21 02:30:18;;;;;;;;;10.75;8.25;;;;;6.52;59.47;103107.38;5040491;28;47086;-49
2022/01/21 02:32:49;;;;;;;;;8.25;7.00;;;;;6.53;59.55;103116.09;5040463;28;45269;-49
2022/01/21 02:35:16;;;;;;;;;8.25;8.25;;;;;6.49;59.44;103115.06;5040753;28;45300;-51
2022/01/21 02:37:42;;;;;;;;;14.75;9.00;;;;;6.49;59.46;103116.00;5040773;28;45531;-50
2022/01/21 02:40:10;;;;;;;;;8.75;7.00;;;;;6.50;59.50;103114.25;5040164;28;45411;-50
2022/01/21 02:42:36;;;;;;;;;13.25;8.50;;;;;6.46;59.55;103108.00;5040550;28;45297;-47
2022/01/21 02:45:03;;;;;;;;;9.00;8.00;;;;;6.45;59.38;103106.25;5040513;28;45329;-51
2022/01/21 02:47:29;;;;;;;;;10.25;9.50;;;;;6.46;59.52;103104.53;5006091;28;45524;-52
2022/01/21 02:49:54;;;;;;;;;9.25;8.75;;;;;6.43;59.45;103105.28;5048116;28;45312;-51
2022/01/21 02:52:23;;;;;;;;;7.50;7.00;;;;;6.42;59.40;103111.34;5040594;28;45368;-49
2022/01/21 02:54:49;;;;;;;;;8.25;6.75;;;;;6.41;59.53;103106.94;5040337;28;45450;-50
2022/01/21 02:57:14;;;;;;;;;11.75;9.50;;;;;6.41;59.56;103108.66;5040618;28;45384;-48
2022/01/21 02:59:40;;;;;;;;;6.50;6.50;;;;;6.39;59.45;103105.09;5040045;28;45438;-50
2022/01/21 03:02:05;;;;;;;;;9.50;7.00;;;;;6.37;59.66;103104.16;5040129;28;45227;-49
2022/01/21 03:07:04;;;;;;;;;7.25;7.00;;;;;6.32;59.40;103107.44;5040187;28;45214;-47
2022/01/21 03:09:29;;;;;;;;;10.25;9.00;;;;;6.32;59.57;103117.00;5039567;28;46995;-50
2022/01/21 03:11:56;;;;;;;;;13.75;12.25;;;;;6.30;59.46;103118.66;5040120;28;45352;-51
2022/01/21 03:14:22;;;;;;;;;7.75;7.25;;;;;6.28;59.36;103117.72;5040230;28;45359;-51
2022/01/21 03:16:47;;;;;;;;;11.50;8.50;;;;;6.26;59.61;103111.53;5040100;28;45346;-51
2022/01/21 03:19:13;;;;;;;;;10.75;8.50;;;;;6.25;59.61;103115.88;5039899;28;46279;-51
2022/01/21 03:21:38;;;;;;;;;10.25;9.00;;;;;6.25;59.44;103131.56;5022221;28;45429;-47
2022/01/21 03:24:04;;;;;;;;;9.25;9.00;;;;;6.24;59.48;103118.41;5022071;28;45492;-49
2022/01/21 03:26:29;;;;;;;;;8.25;7.00;;;;;6.21;59.51;103118.28;5040075;28;45296;-48
2022/01/21 03:28:58;;;;;;;;;10.75;8.25;;;;;6.17;59.47;103115.53;5040938;28;47858;-50
2022/01/21 03:31:24;;;;;;;;;10.00;9.00;;;;;6.17;59.53;103125.09;5045996;28;45404;-47
2022/01/21 03:33:49;;;;;;;;;16.75;13.00;;;;;6.14;59.53;103125.88;5039786;28;45309;-50
2022/01/21 03:36:16;;;;;;;;;12.50;8.75;;;;;6.13;60.09;103126.69;5021932;28;45569;-48
2022/01/21 03:38:42;;;;;;;;;10.25;9.25;;;;;6.11;59.71;103124.84;5039681;28;46208;-46
2022/01/21 03:41:08;;;;;;;;;12.00;8.25;;;;;6.09;59.73;103129.09;5039614;28;45435;-47
2022/01/21 03:43:34;;;;;;;;;14.25;14.00;;;;;5.99;59.53;103112.16;5039658;28;45270;-48
2022/01/21 03:46:01;;;;;;;;;9.00;5.50;;;;;6.05;59.70;103128.09;5039892;28;45309;-46
2022/01/21 03:48:27;;;;;;;;;12.00;9.25;;;;;6.04;59.66;103128.91;5040376;28;45404;-47
2022/01/21 03:50:52;;;;;;;;;12.75;9.75;;;;;6.03;59.48;103137.56;5046682;28;45300;-48
2022/01/21 03:53:18;;;;;;;;;11.25;8.75;;;;;6.02;59.61;103148.81;5039783;28;45226;-47
2022/01/21 03:55:44;;;;;;;;;14.25;12.50;;;;;6.00;59.63;103145.28;5039678;28;45238;-49
2022/01/21 03:58:11;;;;;;;;;8.25;8.25;;;;;5.99;59.67;103143.50;5039559;28;46492;-51
2022/01/21 04:00:40;;;;;;;;;18.75;13.75;;;;;5.97;59.64;103130.31;5021517;28;45387;-48
2022/01/21 04:03:05;;;;;;;;;10.00;7.00;;;;;5.94;59.65;103134.53;5039553;28;45368;-47
2022/01/21 04:05:31;;;;;;;;;12.00;8.25;;;;;5.91;59.85;103137.00;5039488;28;45232;-47
2022/01/21 04:07:57;;;;;;;;;6.75;5.50;;;;;5.93;60.04;103153.63;5024326;28;46397;-49
2022/01/21 04:10:23;;;;;;;;;13.00;12.00;;;;;5.92;59.67;103139.66;5037910;28;45652;-49
2022/01/21 04:12:49;;;;;;;;;9.25;8.25;;;;;5.92;59.76;103134.44;5039712;28;45254;-46
2022/01/21 04:15:15;;;;;;;;;9.50;9.00;;;;;5.92;59.86;103130.97;5044330;28;45526;-48
2022/01/21 04:17:41;;;;;;;;;11.25;8.00;;;;;5.94;59.56;103144.97;5038872;28;45305;-52
2022/01/21 04:20:09;;;;;;;;;14.50;9.25;;;;;5.95;59.71;103146.75;5039293;28;45360;-47
2022/01/21 04:22:35;;;;;;;;;10.25;9.00;;;;;5.95;59.82;103145.03;5039418;28;45322;-49
2022/01/21 04:25:01;;;;;;;;;13.00;9.00;;;;;5.95;59.89;103145.03;5038964;28;45497;-52
2022/01/21 04:27:27;;;;;;;;;10.50;7.00;;;;;5.94;59.74;103144.97;5021258;28;47403;-49
2022/01/21 04:29:52;;;;;;;;;8.00;7.75;;;;;5.97;59.92;103148.59;5021229;28;45318;-50
2022/01/21 04:32:18;;;;;;;;;10.25;10.25;;;;;5.98;59.89;103153.03;5039112;28;45258;-49
2022/01/21 04:34:43;;;;;;;;;14.75;9.75;;;;;5.98;59.99;103152.09;5039146;28;45251;-50
2022/01/21 04:37:11;;;;;;;;;12.50;7.75;;;;;6.01;60.08;103154.88;5039135;28;45222;-49
2022/01/21 04:39:45;;;;;;;;;12.50;7.50;;;;;6.02;59.90;103146.22;5038870;28;45386;-50
2022/01/21 04:47:36;;;;;;;;;11.75;8.50;;;;;6.06;60.10;103158.56;5042072;28;45380;-51
2022/01/21 04:50:08;;;;;;;;;6.50;6.00;;;;;6.08;60.02;103143.88;5032323;28;45351;-53
2022/01/21 04:52:34;;;;;;;;;9.75;8.75;;;;;6.06;60.12;103142.91;5042285;28;45348;-48
2022/01/21 04:54:59;;;;;;;;;6.50;5.50;;;;;6.09;60.20;103144.75;5042202;28;45539;-49
2022/01/21 04:57:25;;;;;;;;;8.00;6.25;;;;;6.07;60.10;103138.59;5042389;28;45397;-51
2022/01/21 04:59:50;;;;;;;;;8.75;7.00;;;;;6.08;59.97;103141.25;5024433;28;45321;-51
2022/01/21 05:02:15;;;;;;;;;11.50;8.75;;;;;6.11;60.11;103144.03;5042124;28;45487;-50
2022/01/21 05:04:40;;;;;;;;;9.75;7.00;;;;;6.13;60.22;103152.78;5042250;28;45376;-50
2022/01/21 05:07:08;;;;;;;;;13.00;11.75;;;;;6.16;60.05;103155.56;5041894;28;45245;-49
2022/01/21 05:09:35;;;;;;;;;10.00;7.75;;;;;6.13;60.18;103152.78;5041777;28;45317;-51
2022/01/21 05:12:07;;;;;;;;;10.00;8.00;;;;;6.18;60.14;103150.38;5042104;28;45313;-48
2022/01/21 05:14:50;;;;;;;;;10.25;9.25;;;;;6.17;60.28;103154.69;5042084;28;45156;-48
2022/01/21 05:17:16;;;;;;;;;11.25;7.25;;;;;6.14;60.12;103138.03;5041435;28;46051;-50
2022/01/21 05:19:42;;;;;;;;;13.25;13.00;;;;;6.21;60.33;103149.63;5041770;28;45432;-49
2022/01/21 05:22:07;;;;;;;;;6.00;4.00;;;;;6.24;60.01;103162.78;5042152;28;45358;-50
2022/01/21 05:24:34;;;;;;;;;8.00;7.75;;;;;6.24;60.13;103153.25;5041780;28;45154;-49
2022/01/21 05:27:01;;;;;;;;;9.75;7.75;;;;;6.26;60.25;103150.72;5041784;28;46405;-53
2022/01/21 05:29:31;;;;;;;;;9.50;6.50;;;;;6.26;60.23;103154.19;5041768;28;45424;-49
2022/01/21 05:31:57;;;;;;;;;13.00;7.00;;;;;6.27;60.29;103155.09;5023493;28;45273;-52
2022/01/21 05:34:22;;;;;;;;;7.50;7.50;;;;;6.27;60.22;103157.72;5041170;28;45438;-51
2022/01/21 05:36:48;;;;;;;;;10.25;9.25;;;;;6.26;60.42;103159.41;5044473;28;45405;-53
2022/01/21 05:39:16;;;;;;;;;11.50;5.75;;;;;6.27;60.29;103160.34;5023811;28;45272;-56
2022/01/21 05:41:49;;;;;;;;;10.25;9.00;;;;;6.27;60.17;103165.56;5041649;28;45356;-54
2022/01/21 05:46:22;;;;;;;;;11.50;9.75;;;;;6.28;60.25;103170.84;5041612;28;45409;-52
2022/01/21 05:47:05;;;;;;;;;8.25;7.50;;;;;6.27;60.25;103166.44;5041059;28;45359;-49
2022/01/21 05:49:33;;;;;;;;;8.75;8.00;;;;;6.28;60.35;103172.56;5032193;28;45931;-50
2022/01/21 05:52:16;;;;;;;;;10.50;7.00;;;;;6.28;60.32;103167.34;5041582;28;45195;-52
2022/01/21 05:54:44;;;;;;;;;13.50;12.00;;;;;6.30;60.34;103170.91;5040380;28;45318;-52
2022/01/21 05:57:12;;;;;;;;;8.00;7.75;;;;;6.33;60.32;103179.75;5041219;28;46207;-50
2022/01/21 05:59:37;;;;;;;;;7.75;7.25;;;;;6.33;60.29;103178.88;5041123;28;46527;-50
2022/01/21 06:02:04;;;;;;;;;8.25;7.00;;;;;6.34;60.44;103175.44;5041169;28;45343;-52
2022/01/21 06:04:32;;;;;;;;;8.00;7.25;;;;;6.34;60.47;103183.28;5041177;28;45312;-53
2022/01/21 06:06:58;;;;;;;;;10.00;7.00;;;;;6.34;59.75;103181.53;5040988;28;46194;-52
2022/01/21 06:09:23;;;;;;;;;10.75;8.50;;;;;6.34;60.43;103189.38;5040643;28;45178;-50
2022/01/21 06:11:51;;;;;;;;;11.75;10.00;;;;;6.35;60.37;103182.41;5041195;28;45330;-50
2022/01/21 06:14:16;;;;;;;;;9.00;5.50;;;;;6.36;60.20;103185.94;5041004;28;45416;-51
2022/01/21 06:16:42;;;;;;;;;11.00;7.00;;;;;6.34;60.29;103191.13;5040648;28;46311;-52
2022/01/21 06:19:07;;;;;;;;;8.00;5.25;;;;;6.33;60.28;103189.31;5040879;28;45332;-51
2022/01/21 06:21:32;;;;;;;;;29.25;21.50;;;;;6.28;60.30;103188.25;5040985;28;45243;-51
2022/01/21 06:23:58;;;;;;;;;9.75;6.75;;;;;6.34;60.19;103196.34;5040702;28;45377;-52
2022/01/21 06:26:23;;;;;;;;;11.50;8.50;;;;;6.33;60.33;103191.94;5042870;28;45967;-49
2022/01/21 06:28:49;;;;;;;;;9.25;9.25;;;;;6.31;60.09;103190.97;5042362;28;45441;-50
2022/01/21 06:31:14;;;;;;;;;8.00;8.00;;;;;6.32;60.08;103195.38;5040816;28;45368;-47
2022/01/21 06:33:40;;;;;;;;;8.25;8.00;;;;;6.32;60.24;103195.38;5040605;28;45327;-51
2022/01/21 06:36:06;;;;;;;;;8.25;7.50;;;;;6.32;60.21;103190.16;5040842;28;45389;-51
2022/01/21 06:38:31;;;;;;;;;12.00;10.25;;;;;6.33;60.13;103192.81;5022631;28;45916;-48
2022/01/21 06:40:56;;;;;;;;;7.50;6.75;;;;;6.32;60.27;103193.63;5040780;28;45218;-49
2022/01/21 06:43:22;;;;;;;;;10.25;9.25;;;;;6.32;60.19;103195.38;5040464;28;45499;-50
2022/01/21 06:45:47;;;;;;;;;11.00;9.25;;;;;6.31;60.08;103189.25;5040620;28;46093;-52
2022/01/21 06:48:13;;;;;;;;;14.25;8.75;;;;;6.30;60.13;103191.78;5022338;28;45405;-50
2022/01/21 06:50:41;;;;;;;;;12.50;8.50;;;;;6.31;60.18;103193.56;5048881;28;45298;-50
2022/01/21 06:53:07;;;;;;;;;13.00;10.00;;;;;6.31;60.07;103211.84;5040386;28;45413;-49
2022/01/21 06:55:32;;;;;;;;;10.00;8.75;;;;;6.27;60.01;103207.34;5040183;28;46215;-51
2022/01/21 06:57:58;;;;;;;;;9.00;7.50;;;;;6.27;59.79;103212.56;5040151;28;45472;-50
2022/01/21 07:00:24;;;;;;;;;14.00;9.00;;;;;6.26;60.21;103216.88;5022681;28;45419;-51
2022/01/21 07:02:52;;;;;;;;;13.50;8.75;;;;;6.27;60.26;103221.28;5040058;28;45412;-51
2022/01/21 07:05:19;;;;;;;;;8.75;6.50;;;;;6.26;60.04;103226.44;5040065;28;45419;-50
2022/01/21 07:07:45;;;;;;;;;9.25;9.25;;;;;6.27;60.16;103223.00;5039926;28;45558;-49
2022/01/21 07:10:13;;;;;;;;;8.00;8.00;;;;;6.27;60.13;103231.72;5040246;28;45338;-50
2022/01/21 07:12:39;;;;;;;;;10.75;8.25;;;;;6.27;59.92;103233.44;5040188;28;45343;-50
2022/01/21 07:15:07;;;;;;;;;6.50;5.50;;;;;6.27;60.14;103233.44;5040156;28;45376;-52
2022/01/21 07:17:33;;;;;;;;;8.50;7.00;;;;;6.27;60.23;103231.72;5021663;28;45357;-49
2022/01/21 07:19:58;;;;;;;;;9.75;7.00;;;;;6.27;60.26;103233.44;5040119;28;45298;-51
2022/01/21 07:22:23;;;;;;;;;10.50;8.00;;;;;6.27;60.21;103238.69;5039931;28;45534;-51
2022/01/21 07:24:49;;;;;;;;;11.00;10.25;;;;;6.27;60.21;103238.69;5039800;28;45294;-51
2022/01/21 07:27:14;;;;;;;;;13.50;10.50;;;;;6.27;60.25;103236.06;5022015;28;45326;-50
2022/01/21 07:29:41;;;;;;;;;14.75;9.50;;;;;6.28;59.90;103240.47;5039926;28;45212;-52
2022/01/21 07:32:07;;;;;;;;;8.25;8.25;;;;;6.31;60.21;103240.59;5039630;28;45403;-50
2022/01/21 07:34:33;;;;;;;;;10.75;9.25;;;;;6.32;60.32;103239.75;5005329;28;47340;-49
2022/01/21 07:36:58;;;;;;;;;8.25;8.25;;;;;6.33;60.34;103241.56;5021793;28;45349;-50
2022/01/21 07:39:24;;;;;;;;;9.75;8.25;;;;;6.33;60.35;103246.78;5017965;28;45286;-47
2022/01/21 07:41:50;;;;;;;;;10.25;9.25;;;;;6.37;60.07;103247.81;5038325;28;45562;-49
2022/01/21 07:44:15;;;;;;;;;14.50;9.25;;;;;6.34;60.24;103240.75;5039697;28;46073;-51
2022/01/21 07:46:43;;;;;;;;;15.00;11.00;;;;;6.36;60.26;103253.84;5005135;28;45322;-51
2022/01/21 07:49:09;;;;;;;;;14.50;10.50;;;;;6.38;60.25;103254.78;5046723;28;45249;-50
2022/01/21 07:51:35;;;;;;;;;11.00;9.50;;;;;6.39;60.41;103253.97;5040608;28;45192;-53
2022/01/21 07:54:02;;;;;;;;;15.00;11.50;;;;;6.41;60.34;103253.22;5039462;28;45395;-53
2022/01/21 07:56:28;;;;;;;;;11.00;8.50;;;;;6.43;60.24;103255.91;5039584;28;45401;-51
2022/01/21 07:58:54;;;;;;;;;9.00;8.00;;;;;6.44;60.35;103263.81;5039597;28;45487;-51
2022/01/21 08:01:19;;;;;;;;;9.00;8.75;;;;;6.44;60.38;103270.72;5039399;28;45284;-52
2022/01/21 08:03:45;;;;;;;;;9.50;8.50;;;;;6.45;60.37;103270.81;5039389;28;45419;-51
2022/01/21 08:06:10;;;;;;;;;15.00;10.75;;;;;6.46;60.16;103272.59;5039316;28;45416;-51
2022/01/21 08:08:36;;;;;;;;;10.00;10.00;;;;;6.48;60.28;103278.78;5039340;28;45435;-52
2022/01/21 08:11:01;;;;;;;;;12.50;10.00;;;;;6.48;60.36;103278.78;5039134;28;45431;-52
2022/01/21 08:13:27;;;;;;;;;15.75;10.75;;;;;6.48;60.41;103284.00;5039494;28;45547;-53
2022/01/21 08:15:55;;;;;;;;;10.25;9.00;;;;;6.49;60.06;103284.88;5038970;28;45225;-52
2022/01/21 08:18:21;;;;;;;;;10.25;10.25;;;;;6.50;60.22;103284.97;5041089;28;45237;-53
2022/01/21 08:20:46;;;;;;;;;10.00;10.00;;;;;6.50;60.21;103279.75;5042688;28;45352;-52
2022/01/21 08:23:12;;;;;;;;;13.00;11.00;;;;;6.52;60.42;103286.78;5042783;28;45312;-52
2022/01/21 08:25:39;;;;;;;;;14.25;10.75;;;;;6.50;60.44;103279.75;5042640;28;45375;-52
2022/01/21 08:28:05;;;;;;;;;16.00;13.00;;;;;6.52;60.46;103287.66;5042750;28;45399;-52
2022/01/21 08:30:31;;;;;;;;;15.00;11.25;;;;;6.53;60.44;103284.22;5042385;28;45338;-51
2022/01/21 08:32:56;;;;;;;;;14.00;9.00;;;;;6.54;60.38;103283.41;5042405;28;45955;-52
2022/01/21 08:35:22;;;;;;;;;10.25;8.75;;;;;6.54;60.34;103280.78;5042579;28;45463;-52
2022/01/21 08:37:52;;;;;;;;;11.00;9.75;;;;;6.56;60.39;103286.06;5042739;28;45229;-50
2022/01/21 08:40:18;;;;;;;;;18.50;12.25;;;;;6.58;60.44;103281.78;5024251;28;45415;-49
2022/01/21 08:42:43;;;;;;;;;19.25;15.00;;;;;6.59;60.48;103283.56;5042453;28;45373;-51
2022/01/21 08:45:10;;;;;;;;;14.50;11.00;;;;;6.61;60.77;103292.38;5042463;28;45246;-48
2022/01/21 08:47:36;;;;;;;;;12.25;9.00;;;;;6.61;60.41;103287.16;5042424;28;45321;-55
2022/01/21 08:50:08;;;;;;;;;10.75;9.50;;;;;6.63;60.36;103290.72;5050710;28;45366;-52
2022/01/21 08:52:37;;;;;;;;;15.75;13.00;;;;;6.65;60.39;103291.69;5042129;28;45430;-58
2022/01/21 08:55:05;;;;;;;;;13.50;11.50;;;;;6.62;60.50;103279.38;5041948;28;45245;-53
2022/01/21 08:57:32;;;;;;;;;10.50;9.50;;;;;6.68;60.51;103297.06;5042243;28;45179;-53
2022/01/21 08:59:58;;;;;;;;;15.25;13.25;;;;;6.69;60.62;103288.34;5041921;28;45254;-53
2022/01/21 09:02:24;;;;;;;;;12.25;12.25;;;;;6.72;60.49;103291.13;5041789;28;45532;-53
2022/01/21 09:04:49;;;;;;;;;16.25;10.75;;;;;6.74;60.46;103285.94;5042141;28;45300;-52
2022/01/21 09:07:14;;;;;;;;;11.50;11.25;;;;;6.75;60.63;103288.63;5041993;28;45455;-53
2022/01/21 09:09:40;;;;;;;;;14.75;12.75;;;;;6.77;60.45;103297.44;5041726;28;45251;-53
2022/01/21 09:12:05;;;;;;;;;15.25;11.50;;;;;6.80;60.52;103286.22;5041909;28;46028;-53
2022/01/21 09:14:33;;;;;;;;;10.25;10.00;;;;;6.80;60.69;103288.81;5042016;28;45471;-52
2022/01/21 09:16:58;;;;;;;;;15.00;10.50;;;;;6.83;60.51;103294.19;5024148;28;45353;-51
2022/01/21 09:19:25;;;;;;;;;15.00;9.00;;;;;6.87;60.68;103295.19;5041723;28;45245;-60
2022/01/21 09:21:51;;;;;;;;;9.00;8.75;;;;;6.89;60.60;103294.44;5041507;28;45236;-53
2022/01/21 09:24:18;;;;;;;;;18.00;12.50;;;;;6.91;60.46;103291.91;5041533;28;45498;-53
2022/01/21 09:26:44;;;;;;;;;12.00;11.00;;;;;6.93;60.97;103298.97;4991093;28;45337;-52
2022/01/21 09:29:10;;;;;;;;;13.00;10.00;;;;;6.94;60.82;103294.63;5040338;28;45250;-53
2022/01/21 09:31:36;;;;;;;;;15.50;11.25;;;;;6.98;60.75;103300.06;5041078;28;45984;-54
2022/01/21 09:34:03;;;;;;;;;11.25;10.00;;;;;7.01;61.04;103296.69;5041630;28;45330;-52
2022/01/21 09:36:29;;;;;;;;;12.00;10.00;;;;;7.05;60.87;103295.09;5041648;28;45178;-51
2022/01/21 09:38:54;;;;;;;;;14.00;9.50;;;;;7.07;60.76;103302.16;5023468;28;45191;-54
2022/01/21 09:41:20;;;;;;;;;14.25;12.25;;;;;7.10;60.82;103317.97;5048475;28;45866;-49
2022/01/21 09:43:48;;;;;;;;;27.75;21.25;;;;;7.13;60.83;103315.50;5041430;28;45310;-51
2022/01/21 09:46:14;;;;;;;;;15.75;11.25;;;;;7.09;60.85;103313.56;5041166;28;45435;-52
2022/01/21 09:48:53;;;;;;;;;13.25;10.00;;;;;7.17;60.97;103329.59;5044157;28;45449;-53
2022/01/21 09:51:19;;;;;;;;;16.25;14.00;;;;;7.21;60.95;103341.03;5044317;28;46329;-53
2022/01/21 09:53:44;;;;;;;;;15.25;11.00;;;;;7.20;60.83;103345.41;5041169;28;45553;-51
2022/01/21 09:56:11;;;;;;;;;10.75;10.75;;;;;7.24;60.84;103360.38;5041306;28;45273;-53
2022/01/21 09:58:36;;;;;;;;;15.50;13.25;;;;;7.27;60.82;103363.13;5041389;28;45321;-50
2022/01/21 10:01:08;;;;;;;;;16.25;14.25;;;;;7.30;61.03;103354.53;5040877;28;45420;-51
2022/01/21 10:03:34;;;;;;;;;19.75;14.00;;;;;7.31;60.92;103345.84;5041310;28;45245;-53
2022/01/21 10:06:02;;;;;;;;;15.75;13.75;;;;;7.34;60.81;103351.19;5041216;28;45184;-49
2022/01/21 10:08:28;;;;;;;;;18.00;16.50;;;;;7.37;60.90;103353.94;5040811;28;45414;-53
2022/01/21 10:10:54;;;;;;;;;23.75;20.00;;;;;7.40;60.48;103361.91;5040854;28;45415;-53
2022/01/21 10:13:20;;;;;;;;;18.50;13.50;;;;;7.43;61.00;103348.97;5041154;28;45399;-50
2022/01/21 10:15:48;;;;;;;;;20.50;17.75;;;;;7.45;60.91;103352.53;5043754;28;45273;-52
2022/01/21 10:18:19;;;;;;;;;14.75;14.75;;;;;7.47;60.80;103348.25;5041077;28;45236;-50
2022/01/21 10:20:58;;;;;;;;;17.50;16.50;;;;;7.53;61.08;103350.22;5040716;28;45400;-52
2022/01/21 10:23:24;;;;;;;;;15.25;15.00;;;;;7.55;61.06;103355.53;5040894;28;45170;-53
2022/01/21 10:26:19;;;;;;;;;13.75;13.75;;;;;7.60;60.82;103356.59;5040882;28;45336;-52
2022/01/21 10:28:54;;;;;;;;;15.25;12.50;;;;;7.62;61.00;103347.06;5038949;28;45350;-52
2022/01/21 10:31:20;;;;;;;;;19.75;15.75;;;;;7.66;61.08;103349.00;5040587;28;45251;-53
2022/01/21 10:33:48;;;;;;;;;12.25;12.00;;;;;7.71;60.98;103351.78;5040615;28;45459;-51
2022/01/21 10:36:27;;;;;;;;;17.25;13.25;;;;;7.76;60.88;103355.47;5040981;28;45297;-53
2022/01/21 10:39:05;;;;;;;;;15.25;13.00;;;;;7.79;61.06;103343.38;5047678;28;45510;-52
2022/01/21 10:41:33;;;;;;;;;21.50;16.75;;;;;7.84;60.96;103342.69;5060224;28;46997;-52
2022/01/21 10:44:07;;;;;;;;;15.00;15.00;;;;;7.86;61.05;103347.16;5060676;28;45466;-51
2022/01/21 10:46:32;;;;;;;;;18.50;15.75;;;;;7.90;60.98;103348.16;5060496;28;45358;-49
2022/01/21 10:48:59;;;;;;;;;16.00;13.00;;;;;7.94;60.97;103350.06;5060529;28;45331;-50
2022/01/21 10:51:28;;;;;;;;;15.00;12.25;;;;;7.94;61.23;103350.94;5043814;28;46202;-51
2022/01/21 10:53:55;;;;;;;;;16.75;15.50;;;;;8.00;61.22;103349.41;5040221;28;45400;-53
2022/01/21 10:56:21;;;;;;;;;16.75;13.50;;;;;8.06;60.88;103347.00;5040375;28;45223;-54
2022/01/21 10:58:51;;;;;;;;;12.50;11.75;;;;;8.11;61.23;103342.84;5040491;28;45436;-53
2022/01/21 11:01:21;;;;;;;;;13.00;12.50;;;;;8.13;60.98;103330.69;5039849;28;47084;-52
2022/01/21 11:04:10;;;;;;;;;17.50;16.00;;;;;8.19;61.40;103335.25;5040266;28;45393;-53
2022/01/21 11:06:49;;;;;;;;;15.75;13.25;;;;;8.23;61.13;103324.97;5030835;28;45289;-53
2022/01/21 11:09:23;;;;;;;;;13.25;13.00;;;;;8.29;61.02;103326.94;5056248;28;45459;-53
2022/01/21 11:12:07;;;;;;;;;15.00;15.00;;;;;8.34;61.15;103317.50;5040051;28;46076;-54
2022/01/21 11:14:34;;;;;;;;;15.25;14.50;;;;;8.36;61.16;103336.78;5022240;28;45518;-52
2022/01/21 11:17:14;;;;;;;;;17.00;14.75;;;;;8.39;61.27;103334.28;5039845;28;45400;-51
2022/01/21 11:19:59;;;;;;;;;19.25;15.50;;;;;8.44;61.00;103334.47;5022224;28;45328;-53
2022/01/21 11:22:25;;;;;;;;;23.00;18.00;;;;;8.48;60.88;103330.22;5039782;28;45424;-50
2022/01/21 11:24:50;;;;;;;;;19.75;15.50;;;;;8.51;61.13;103335.59;5039980;28;45325;-52
2022/01/21 11:27:17;;;;;;;;;15.75;12.75;;;;;8.55;60.90;103327.00;5055999;28;45507;-53
2022/01/21 11:29:45;;;;;;;;;13.25;11.75;;;;;8.57;61.07;103317.47;5047839;28;45290;-52
2022/01/21 11:32:11;;;;;;;;;16.50;13.50;;;;;8.59;60.94;103327.16;5039303;28;46128;-52
2022/01/21 11:34:37;;;;;;;;;21.75;16.75;;;;;8.61;61.01;103325.47;5039970;28;45353;-51
2022/01/21 11:37:05;;;;;;;;;17.25;14.00;;;;;8.64;60.97;103322.09;5039765;28;45336;-53
2022/01/21 11:39:32;;;;;;;;;18.50;16.00;;;;;8.67;60.82;103319.56;5039690;28;45305;-53
2022/01/21 11:41:59;;;;;;;;;15.00;14.00;;;;;8.70;60.49;103314.41;5039593;28;46122;-52
2022/01/21 11:44:27;;;;;;;;;19.50;14.00;;;;;8.72;60.84;103314.50;5039814;28;45214;-51
2022/01/21 11:47:02;;;;;;;;;12.25;11.00;;;;;8.73;60.83;103311.91;5039696;28;45329;-52
2022/01/21 11:49:29;;;;;;;;;9.00;7.50;;;;;8.79;60.86;103324.34;5047887;28;45326;-54
2022/01/21 11:52:13;;;;;;;;;19.75;14.25;;;;;8.83;60.70;103309.59;5039500;28;46395;-53
2022/01/21 11:54:39;;;;;;;;;19.25;15.75;;;;;8.85;60.61;103308.81;5042944;28;45254;-53
2022/01/21 11:57:06;;;;;;;;;23.25;17.00;;;;;8.89;60.82;103307.19;5043258;28;45333;-54
2022/01/21 12:01:58;;;;;;;;;17.75;14.50;;;;;8.90;60.83;103311.59;5042898;28;45274;-50
2022/01/21 12:04:29;;;;;;;;;15.50;14.25;;;;;8.91;60.99;103309.03;5043135;28;45269;-52
2022/01/21 12:06:55;;;;;;;;;20.00;17.25;;;;;8.93;60.58;103317.84;5043056;28;45337;-52
2022/01/21 12:09:56;;;;;;;;;23.25;17.00;;;;;8.97;60.87;103313.59;5042638;28;45512;-54
2022/01/21 12:12:23;;;;;;;;;13.75;12.50;;;;;9.01;60.55;103317.22;5024951;28;45902;-54
2022/01/21 12:14:55;;;;;;;;;20.00;16.25;;;;;9.07;60.70;103322.66;5042951;28;45362;-54